sensor_id;sensor_type;location;lat;lon;timestamp;pressure;altitude;pressure_sealevel;temperature;humidity
21730;BME280;11027;51.030;13.812;2023-06-22T00:01:15;100464.97;;;23.74;66.35
21730;BME280;11027;51.030;13.812;2023-06-22T00:03:41;100466.00;;;23.68;66.36
21730;BME280;11027;51.030;13.812;2023-06-22T00:06:06;100460.13;;;23.65;66.49
21730;BME280;11027;51.030;13.812;2023-06-22T00:08:31;100470.66;;;23.63;66.70
21730;BME280;11027;51.030;13.812;2023-06-22T00:10:56;100471.78;;;23.62;66.84
21730;BME280;11027;51.030;13.812;2023-06-22T00:13:22;100467.06;;;23.62;67.09
21730;BME280;11027;51.030;13.812;2023-06-22T00:15:47;100478.69;;;23.59;67.11
21730;BME280;11027;51.030;13.812;2023-06-22T00:18:12;100475.84;;;23.54;67.26
21730;BME280;11027;51.030;13.812;2023-06-22T00:20:38;100483.63;;;23.52;67.66
21730;BME280;11027;51.030;13.812;2023-06-22T00:23:05;100482.44;;;23.48;67.79
21730;BME280;11027;51.030;13.812;2023-06-22T00:25:37;100492.41;;;23.44;67.88
21730;BME280;11027;51.030;13.812;2023-06-22T00:28:05;100494.59;;;23.42;68.35
21730;BME280;11027;51.030;13.812;2023-06-22T00:30:31;100499.00;;;23.38;68.26
21730;BME280;11027;51.030;13.812;2023-06-22T00:32:57;100500.38;;;23.35;68.51
21730;BME280;11027;51.030;13.812;2023-06-22T00:35:23;100511.16;;;23.31;68.21
21730;BME280;11027;51.030;13.812;2023-06-22T00:37:58;100505.00;;;23.29;68.40
21730;BME280;11027;51.030;13.812;2023-06-22T00:40:29;100509.47;;;23.30;68.55
21730;BME280;11027;51.030;13.812;2023-06-22T00:42:55;100503.06;;;23.30;68.60
21730;BME280;11027;51.030;13.812;2023-06-22T00:45:21;100501.91;;;23.26;68.62
21730;BME280;11027;51.030;13.812;2023-06-22T00:47:52;100500.47;;;23.23;68.86
21730;BME280;11027;51.030;13.812;2023-06-22T00:50:20;100493.22;;;23.22;68.77
21730;BME280;11027;51.030;13.812;2023-06-22T00:52:55;100487.03;;;23.15;69.26
21730;BME280;11027;51.030;13.812;2023-06-22T00:55:24;100481.63;;;23.08;69.28
21730;BME280;11027;51.030;13.812;2023-06-22T00:57:51;100494.69;;;23.08;69.13
21730;BME280;11027;51.030;13.812;2023-06-22T01:00:21;100497.13;;;23.04;69.69
21730;BME280;11027;51.030;13.812;2023-06-22T01:02:50;100495.22;;;23.05;69.79
21730;BME280;11027;51.030;13.812;2023-06-22T01:05:17;100494.63;;;23.03;69.67
21730;BME280;11027;51.030;13.812;2023-06-22T01:08:12;100479.53;;;22.99;69.88
21730;BME280;11027;51.030;13.812;2023-06-22T01:10:51;100487.78;;;22.93;70.09
21730;BME280;11027;51.030;13.812;2023-06-22T01:16:05;100495.03;;;22.77;70.41
21730;BME280;11027;51.030;13.812;2023-06-22T01:18:34;100489.66;;;22.71;70.62
21730;BME280;11027;51.030;13.812;2023-06-22T01:21:02;100490.75;;;22.70;70.58
21730;BME280;11027;51.030;13.812;2023-06-22T01:23:35;100488.84;;;22.70;70.61
21730;BME280;11027;51.030;13.812;2023-06-22T01:26:12;100492.09;;;22.67;70.42
21730;BME280;11027;51.030;13.812;2023-06-22T01:28:45;100490.69;;;22.65;70.55
21730;BME280;11027;51.030;13.812;2023-06-22T01:31:14;100485.13;;;22.65;71.01
21730;BME280;11027;51.030;13.812;2023-06-22T01:33:43;100494.53;;;22.64;70.96
21730;BME280;11027;51.030;13.812;2023-06-22T01:36:09;100507.84;;;22.62;70.88
21730;BME280;11027;51.030;13.812;2023-06-22T01:38:36;100490.00;;;22.57;71.04
21730;BME280;11027;51.030;13.812;2023-06-22T01:41:02;100495.22;;;22.54;71.15
21730;BME280;11027;51.030;13.812;2023-06-22T01:43:29;100492.13;;;22.50;71.18
21730;BME280;11027;51.030;13.812;2023-06-22T01:45:56;100491.78;;;22.47;71.50
21730;BME280;11027;51.030;13.812;2023-06-22T01:48:22;100489.75;;;22.42;71.28
21730;BME280;11027;51.030;13.812;2023-06-22T01:50:47;100498.22;;;22.35;71.27
21730;BME280;11027;51.030;13.812;2023-06-22T01:53:12;100491.84;;;22.35;71.43
21730;BME280;11027;51.030;13.812;2023-06-22T01:55:38;100494.03;;;22.33;71.55
21730;BME280;11027;51.030;13.812;2023-06-22T01:58:03;100484.03;;;22.32;71.67
21730;BME280;11027;51.030;13.812;2023-06-22T02:00:33;100489.47;;;22.27;71.58
21730;BME280;11027;51.030;13.812;2023-06-22T02:03:22;100493.81;;;22.23;71.75
21730;BME280;11027;51.030;13.812;2023-06-22T02:05:50;100489.34;;;22.22;71.88
21730;BME280;11027;51.030;13.812;2023-06-22T02:08:20;100485.38;;;22.17;72.00
21730;BME280;11027;51.030;13.812;2023-06-22T02:10:48;100485.91;;;22.14;72.31
21730;BME280;11027;51.030;13.812;2023-06-22T02:13:14;100480.84;;;22.11;72.36
21730;BME280;11027;51.030;13.812;2023-06-22T02:15:41;100477.16;;;22.06;73.01
21730;BME280;11027;51.030;13.812;2023-06-22T02:18:06;100480.16;;;22.04;72.83
21730;BME280;11027;51.030;13.812;2023-06-22T02:20:32;100479.66;;;22.07;72.88
21730;BME280;11027;51.030;13.812;2023-06-22T02:22:57;100479.06;;;22.05;73.22
21730;BME280;11027;51.030;13.812;2023-06-22T02:25:22;100472.94;;;22.03;73.42
21730;BME280;11027;51.030;13.812;2023-06-22T02:27:48;100488.38;;;21.99;73.43
21730;BME280;11027;51.030;13.812;2023-06-22T02:30:15;100481.66;;;21.95;73.66
21730;BME280;11027;51.030;13.812;2023-06-22T02:32:41;100490.22;;;21.93;74.06
21730;BME280;11027;51.030;13.812;2023-06-22T02:35:08;100490.97;;;21.89;73.76
21730;BME280;11027;51.030;13.812;2023-06-22T02:37:35;100491.88;;;21.77;73.99
21730;BME280;11027;51.030;13.812;2023-06-22T02:40:01;100494.78;;;21.71;74.25
21730;BME280;11027;51.030;13.812;2023-06-22T02:42:26;100489.97;;;21.66;74.22
21730;BME280;11027;51.030;13.812;2023-06-22T02:44:51;100493.81;;;21.65;74.32
21730;BME280;11027;51.030;13.812;2023-06-22T02:47:17;100500.00;;;21.67;73.90
21730;BME280;11027;51.030;13.812;2023-06-22T02:49:43;100504.91;;;21.65;74.03
21730;BME280;11027;51.030;13.812;2023-06-22T02:52:10;100500.22;;;21.66;73.91
21730;BME280;11027;51.030;13.812;2023-06-22T02:54:35;100506.59;;;21.66;74.04
21730;BME280;11027;51.030;13.812;2023-06-22T02:57:00;100512.63;;;21.63;74.19
21730;BME280;11027;51.030;13.812;2023-06-22T02:59:28;100510.97;;;21.62;74.23
21730;BME280;11027;51.030;13.812;2023-06-22T03:01:53;100505.66;;;21.61;74.63
21730;BME280;11027;51.030;13.812;2023-06-22T03:04:18;100504.22;;;21.58;74.58
21730;BME280;11027;51.030;13.812;2023-06-22T03:06:43;100485.66;;;21.58;74.23
21730;BME280;11027;51.030;13.812;2023-06-22T03:09:09;100496.97;;;21.57;74.85
21730;BME280;11027;51.030;13.812;2023-06-22T03:11:34;100506.41;;;21.56;74.81
21730;BME280;11027;51.030;13.812;2023-06-22T03:14:01;100504.69;;;21.55;74.86
21730;BME280;11027;51.030;13.812;2023-06-22T03:16:26;100509.41;;;21.54;74.74
21730;BME280;11027;51.030;13.812;2023-06-22T03:18:52;100502.44;;;21.52;74.84
21730;BME280;11027;51.030;13.812;2023-06-22T03:21:22;100491.34;;;21.52;74.60
21730;BME280;11027;51.030;13.812;2023-06-22T03:23:47;100489.06;;;21.49;74.71
21730;BME280;11027;51.030;13.812;2023-06-22T03:26:12;100478.09;;;21.42;74.79
21730;BME280;11027;51.030;13.812;2023-06-22T03:28:38;100471.00;;;21.34;74.88
21730;BME280;11027;51.030;13.812;2023-06-22T03:31:04;100459.91;;;21.34;74.83
21730;BME280;11027;51.030;13.812;2023-06-22T03:33:31;100456.91;;;21.36;74.94
21730;BME280;11027;51.030;13.812;2023-06-22T03:35:56;100461.09;;;21.38;74.88
21730;BME280;11027;51.030;13.812;2023-06-22T03:38:22;100464.72;;;21.39;74.96
21730;BME280;11027;51.030;13.812;2023-06-22T03:40:47;100474.84;;;21.33;74.97
21730;BME280;11027;51.030;13.812;2023-06-22T03:43:12;100475.84;;;21.27;75.29
21730;BME280;11027;51.030;13.812;2023-06-22T03:45:37;100475.13;;;21.20;75.35
21730;BME280;11027;51.030;13.812;2023-06-22T03:48:03;100484.03;;;21.22;75.22
21730;BME280;11027;51.030;13.812;2023-06-22T03:50:28;100481.50;;;21.21;75.12
21730;BME280;11027;51.030;13.812;2023-06-22T03:52:55;100485.72;;;21.23;75.34
21730;BME280;11027;51.030;13.812;2023-06-22T03:55:20;100494.97;;;21.29;75.22
21730;BME280;11027;51.030;13.812;2023-06-22T03:57:45;100486.41;;;21.30;75.24
21730;BME280;11027;51.030;13.812;2023-06-22T04:00:11;100481.72;;;21.31;74.92
21730;BME280;11027;51.030;13.812;2023-06-22T04:02:36;100491.59;;;21.27;75.25
21730;BME280;11027;51.030;13.812;2023-06-22T04:05:02;100483.56;;;21.25;75.28
21730;BME280;11027;51.030;13.812;2023-06-22T04:07:27;100487.38;;;21.24;75.48
21730;BME280;11027;51.030;13.812;2023-06-22T04:09:52;100480.66;;;21.20;75.63
21730;BME280;11027;51.030;13.812;2023-06-22T04:12:17;100482.94;;;21.23;75.67
21730;BME280;11027;51.030;13.812;2023-06-22T04:14:43;100499.66;;;21.28;75.33
21730;BME280;11027;51.030;13.812;2023-06-22T04:17:08;100503.03;;;21.30;75.57
21730;BME280;11027;51.030;13.812;2023-06-22T04:19:33;100500.19;;;21.25;75.40
21730;BME280;11027;51.030;13.812;2023-06-22T04:21:59;100504.53;;;21.21;75.83
21730;BME280;11027;51.030;13.812;2023-06-22T04:24:24;100506.19;;;21.22;75.89
21730;BME280;11027;51.030;13.812;2023-06-22T04:26:49;100505.72;;;21.25;75.64
21730;BME280;11027;51.030;13.812;2023-06-22T04:29:18;100512.31;;;21.24;75.54
21730;BME280;11027;51.030;13.812;2023-06-22T04:31:43;100507.38;;;21.26;76.15
21730;BME280;11027;51.030;13.812;2023-06-22T04:34:09;100504.00;;;21.24;75.70
21730;BME280;11027;51.030;13.812;2023-06-22T04:36:40;100510.75;;;21.28;75.71
21730;BME280;11027;51.030;13.812;2023-06-22T04:39:06;100508.13;;;21.33;75.49
21730;BME280;11027;51.030;13.812;2023-06-22T04:41:32;100510.13;;;21.38;75.33
21730;BME280;11027;51.030;13.812;2023-06-22T04:44:10;100504.97;;;21.42;75.00
21730;BME280;11027;51.030;13.812;2023-06-22T04:46:36;100511.72;;;21.46;75.15
21730;BME280;11027;51.030;13.812;2023-06-22T04:49:09;100518.47;;;21.50;75.39
21730;BME280;11027;51.030;13.812;2023-06-22T04:51:39;100528.44;;;21.51;75.41
21730;BME280;11027;51.030;13.812;2023-06-22T04:54:05;100525.22;;;21.54;75.21
21730;BME280;11027;51.030;13.812;2023-06-22T04:56:31;100536.38;;;21.59;75.34
21730;BME280;11027;51.030;13.812;2023-06-22T04:58:57;100542.88;;;21.65;75.34
21730;BME280;11027;51.030;13.812;2023-06-22T05:01:23;100548.56;;;21.70;75.18
21730;BME280;11027;51.030;13.812;2023-06-22T05:03:48;100556.03;;;21.69;74.69
21730;BME280;11027;51.030;13.812;2023-06-22T05:06:14;100552.16;;;21.70;74.50
21730;BME280;11027;51.030;13.812;2023-06-22T05:08:40;100558.31;;;21.72;74.38
21730;BME280;11027;51.030;13.812;2023-06-22T05:11:05;100564.44;;;21.74;73.87
21730;BME280;11027;51.030;13.812;2023-06-22T05:13:30;100577.84;;;21.77;73.99
21730;BME280;11027;51.030;13.812;2023-06-22T05:15:56;100583.72;;;21.81;73.48
21730;BME280;11027;51.030;13.812;2023-06-22T05:18:27;100586.84;;;21.85;73.73
21730;BME280;11027;51.030;13.812;2023-06-22T05:20:52;100592.75;;;21.88;73.66
21730;BME280;11027;51.030;13.812;2023-06-22T05:23:18;100593.19;;;21.97;73.33
21730;BME280;11027;51.030;13.812;2023-06-22T05:25:44;100583.41;;;22.06;73.01
21730;BME280;11027;51.030;13.812;2023-06-22T05:28:09;100583.25;;;22.13;72.62
21730;BME280;11027;51.030;13.812;2023-06-22T05:30:36;100581.06;;;22.15;72.42
21730;BME280;11027;51.030;13.812;2023-06-22T05:33:01;100583.59;;;22.16;72.42
21730;BME280;11027;51.030;13.812;2023-06-22T05:35:27;100581.44;;;22.18;72.09
21730;BME280;11027;51.030;13.812;2023-06-22T05:37:52;100588.41;;;22.21;72.05
21730;BME280;11027;51.030;13.812;2023-06-22T05:40:17;100577.91;;;22.23;72.12
21730;BME280;11027;51.030;13.812;2023-06-22T05:42:42;100558.28;;;22.25;71.84
21730;BME280;11027;51.030;13.812;2023-06-22T05:45:08;100553.06;;;22.28;71.88
21730;BME280;11027;51.030;13.812;2023-06-22T05:47:33;100553.41;;;22.32;71.97
21730;BME280;11027;51.030;13.812;2023-06-22T05:49:58;100561.47;;;22.33;71.95
21730;BME280;11027;51.030;13.812;2023-06-22T05:52:24;100561.81;;;22.37;72.06
21730;BME280;11027;51.030;13.812;2023-06-22T05:54:49;100557.97;;;22.38;72.09
21730;BME280;11027;51.030;13.812;2023-06-22T05:57:14;100561.34;;;22.40;72.13
21730;BME280;11027;51.030;13.812;2023-06-22T05:59:40;100558.56;;;22.40;72.19
21730;BME280;11027;51.030;13.812;2023-06-22T06:02:05;100562.19;;;22.41;72.36
21730;BME280;11027;51.030;13.812;2023-06-22T06:04:30;100554.44;;;22.43;72.41
21730;BME280;11027;51.030;13.812;2023-06-22T06:06:56;100538.13;;;22.46;72.01
21730;BME280;11027;51.030;13.812;2023-06-22T06:09:21;100545.34;;;22.47;72.46
21730;BME280;11027;51.030;13.812;2023-06-22T06:11:46;100546.47;;;22.46;72.67
21730;BME280;11027;51.030;13.812;2023-06-22T06:14:12;100550.91;;;22.47;72.76
21730;BME280;11027;51.030;13.812;2023-06-22T06:16:37;100532.91;;;22.50;72.75
21730;BME280;11027;51.030;13.812;2023-06-22T06:19:02;100541.69;;;22.59;72.43
21730;BME280;11027;51.030;13.812;2023-06-22T06:21:27;100528.88;;;22.74;72.09
21730;BME280;11027;51.030;13.812;2023-06-22T06:23:53;100526.34;;;22.90;71.89
21730;BME280;11027;51.030;13.812;2023-06-22T06:26:18;100513.06;;;23.09;71.28
21730;BME280;11027;51.030;13.812;2023-06-22T06:28:53;100512.19;;;23.25;70.78
21730;BME280;11027;51.030;13.812;2023-06-22T06:31:18;100493.50;;;23.43;70.32
21730;BME280;11027;51.030;13.812;2023-06-22T06:33:43;100452.81;;;23.59;69.78
21730;BME280;11027;51.030;13.812;2023-06-22T06:36:08;100412.13;;;23.74;69.46
21730;BME280;11027;51.030;13.812;2023-06-22T06:38:33;100414.53;;;23.88;69.02
21730;BME280;11027;51.030;13.812;2023-06-22T06:40:59;100427.72;;;24.03;68.96
21730;BME280;11027;51.030;13.812;2023-06-22T06:43:24;100431.44;;;24.13;68.35
21730;BME280;11027;51.030;13.812;2023-06-22T06:45:50;100442.63;;;24.19;68.31
21730;BME280;11027;51.030;13.812;2023-06-22T06:48:15;100447.66;;;24.22;67.97
21730;BME280;11027;51.030;13.812;2023-06-22T06:50:41;100446.50;;;24.17;68.06
21730;BME280;11027;51.030;13.812;2023-06-22T06:53:08;100432.56;;;24.12;67.88
21730;BME280;11027;51.030;13.812;2023-06-22T06:55:34;100419.63;;;24.01;67.72
21730;BME280;11027;51.030;13.812;2023-06-22T06:57:59;100412.59;;;23.93;67.80
21730;BME280;11027;51.030;13.812;2023-06-22T07:00:25;100424.53;;;23.89;67.84
21730;BME280;11027;51.030;13.812;2023-06-22T07:02:51;100430.06;;;23.84;67.90
21730;BME280;11027;51.030;13.812;2023-06-22T07:05:16;100433.09;;;23.82;67.82
21730;BME280;11027;51.030;13.812;2023-06-22T07:07:41;100440.31;;;23.83;67.89
21730;BME280;11027;51.030;13.812;2023-06-22T07:10:08;100437.81;;;23.82;67.88
21730;BME280;11027;51.030;13.812;2023-06-22T07:12:33;100441.19;;;23.84;68.16
21730;BME280;11027;51.030;13.812;2023-06-22T07:15:07;100440.31;;;23.83;68.05
21730;BME280;11027;51.030;13.812;2023-06-22T07:17:37;100444.53;;;23.86;68.03
21730;BME280;11027;51.030;13.812;2023-06-22T07:20:03;100447.38;;;23.91;68.13
21730;BME280;11027;51.030;13.812;2023-06-22T07:22:35;100446.31;;;23.97;68.42
21730;BME280;11027;51.030;13.812;2023-06-22T07:25:00;100443.59;;;24.02;68.07
21730;BME280;11027;51.030;13.812;2023-06-22T07:27:26;100438.13;;;24.12;67.98
21730;BME280;11027;51.030;13.812;2023-06-22T07:29:51;100434.09;;;24.30;67.64
21730;BME280;11027;51.030;13.812;2023-06-22T07:32:16;100435.97;;;24.52;67.47
21730;BME280;11027;51.030;13.812;2023-06-22T07:34:42;100433.06;;;24.74;67.22
21730;BME280;11027;51.030;13.812;2023-06-22T07:37:08;100432.03;;;24.90;66.42
21730;BME280;11027;51.030;13.812;2023-06-22T07:39:33;100426.00;;;25.04;65.96
21730;BME280;11027;51.030;13.812;2023-06-22T07:41:59;100433.31;;;25.15;65.68
21730;BME280;11027;51.030;13.812;2023-06-22T07:44:24;100424.94;;;25.20;64.75
21730;BME280;11027;51.030;13.812;2023-06-22T07:46:50;100429.16;;;25.23;64.50
21730;BME280;11027;51.030;13.812;2023-06-22T07:49:17;100427.25;;;25.23;64.71
21730;BME280;11027;51.030;13.812;2023-06-22T07:51:42;100427.50;;;25.22;64.28
21730;BME280;11027;51.030;13.812;2023-06-22T07:54:08;100426.91;;;25.20;64.19
21730;BME280;11027;51.030;13.812;2023-06-22T07:56:34;100436.69;;;25.22;63.97
21730;BME280;11027;51.030;13.812;2023-06-22T07:58:59;100433.38;;;25.25;64.01
21730;BME280;11027;51.030;13.812;2023-06-22T08:01:26;100435.09;;;25.31;63.64
21730;BME280;11027;51.030;13.812;2023-06-22T08:03:51;100430.06;;;25.33;63.78
21730;BME280;11027;51.030;13.812;2023-06-22T08:06:16;100427.84;;;25.35;63.33
21730;BME280;11027;51.030;13.812;2023-06-22T08:08:42;100420.88;;;25.38;63.49
21730;BME280;11027;51.030;13.812;2023-06-22T08:11:08;100420.63;;;25.45;63.22
21730;BME280;11027;51.030;13.812;2023-06-22T08:13:33;100416.16;;;25.49;63.43
21730;BME280;11027;51.030;13.812;2023-06-22T08:15:59;100410.03;;;25.57;62.97
21730;BME280;11027;51.030;13.812;2023-06-22T08:18:24;100415.38;;;25.69;62.05
21730;BME280;11027;51.030;13.812;2023-06-22T08:20:49;100416.81;;;25.87;61.38
21730;BME280;11027;51.030;13.812;2023-06-22T08:23:15;100404.59;;;26.03;60.97
21730;BME280;11027;51.030;13.812;2023-06-22T08:25:40;100414.09;;;26.12;60.41
21730;BME280;11027;51.030;13.812;2023-06-22T08:28:05;100407.69;;;26.12;59.42
21730;BME280;11027;51.030;13.812;2023-06-22T08:30:31;100401.81;;;26.08;59.26
21730;BME280;11027;51.030;13.812;2023-06-22T08:32:56;100406.84;;;26.06;59.46
21730;BME280;11027;51.030;13.812;2023-06-22T08:35:22;100394.53;;;26.07;59.12
21730;BME280;11027;51.030;13.812;2023-06-22T08:37:48;100401.81;;;26.08;59.22
21730;BME280;11027;51.030;13.812;2023-06-22T08:40:18;100396.22;;;26.08;59.10
21730;BME280;11027;51.030;13.812;2023-06-22T08:42:45;100391.47;;;26.09;59.39
21730;BME280;11027;51.030;13.812;2023-06-22T08:45:11;100397.31;;;26.07;58.43
21730;BME280;11027;51.030;13.812;2023-06-22T08:47:37;100392.88;;;26.06;58.50
21730;BME280;11027;51.030;13.812;2023-06-22T08:50:02;100392.88;;;26.06;58.33
21730;BME280;11027;51.030;13.812;2023-06-22T08:52:28;100396.50;;;26.12;58.58
21730;BME280;11027;51.030;13.812;2023-06-22T08:54:54;100395.09;;;26.20;58.42
21730;BME280;11027;51.030;13.812;2023-06-22T08:57:21;100386.19;;;26.23;57.77
21730;BME280;11027;51.030;13.812;2023-06-22T08:59:46;100400.69;;;26.25;58.02
21730;BME280;11027;51.030;13.812;2023-06-22T09:02:11;100397.91;;;26.30;57.82
21730;BME280;11027;51.030;13.812;2023-06-22T09:04:37;100387.84;;;26.34;57.42
21730;BME280;11027;51.030;13.812;2023-06-22T09:07:02;100387.84;;;26.34;57.75
21730;BME280;11027;51.030;13.812;2023-06-22T09:09:27;100378.91;;;26.42;57.05
21730;BME280;11027;51.030;13.812;2023-06-22T09:11:52;100383.91;;;26.45;57.52
21730;BME280;11027;51.030;13.812;2023-06-22T09:14:18;100377.19;;;26.51;57.55
21730;BME280;11027;51.030;13.812;2023-06-22T09:16:43;100372.19;;;26.59;57.19
21730;BME280;11027;51.030;13.812;2023-06-22T09:19:09;100369.38;;;26.64;57.03
21730;BME280;11027;51.030;13.812;2023-06-22T09:21:34;100371.06;;;26.65;56.28
21730;BME280;11027;51.030;13.812;2023-06-22T09:23:59;100363.25;;;26.67;56.05
21730;BME280;11027;51.030;13.812;2023-06-22T09:26:24;100363.75;;;26.74;55.93
21730;BME280;11027;51.030;13.812;2023-06-22T09:28:50;100365.41;;;26.85;55.72
21730;BME280;11027;51.030;13.812;2023-06-22T09:31:15;100364.28;;;26.97;55.58
21730;BME280;11027;51.030;13.812;2023-06-22T09:33:41;100361.44;;;27.02;55.26
21730;BME280;11027;51.030;13.812;2023-06-22T09:36:07;100365.06;;;27.07;54.77
21730;BME280;11027;51.030;13.812;2023-06-22T09:38:38;100358.03;;;27.15;54.30
21730;BME280;11027;51.030;13.812;2023-06-22T09:41:04;100363.63;;;27.25;53.86
21730;BME280;11027;51.030;13.812;2023-06-22T09:43:32;100357.13;;;27.35;53.47
21730;BME280;11027;51.030;13.812;2023-06-22T09:46:00;100353.41;;;27.50;53.43
21730;BME280;11027;51.030;13.812;2023-06-22T09:48:27;100352.75;;;27.63;52.90
21730;BME280;11027;51.030;13.812;2023-06-22T09:50:52;100350.44;;;27.76;52.67
21730;BME280;11027;51.030;13.812;2023-06-22T09:53:17;100333.81;;;27.89;52.05
21730;BME280;11027;51.030;13.812;2023-06-22T09:55:42;100339.94;;;27.97;51.64
21730;BME280;11027;51.030;13.812;2023-06-22T09:58:08;100339.59;;;28.03;51.58
21730;BME280;11027;51.030;13.812;2023-06-22T10:00:34;100338.72;;;28.08;51.27
21730;BME280;11027;51.030;13.812;2023-06-22T10:02:59;100338.66;;;28.13;50.95
21730;BME280;11027;51.030;13.812;2023-06-22T10:05:24;100344.19;;;28.23;50.62
21730;BME280;11027;51.030;13.812;2023-06-22T10:07:50;100334.19;;;28.41;50.97
21730;BME280;11027;51.030;13.812;2023-06-22T10:10:15;100333.41;;;28.65;50.53
21730;BME280;11027;51.030;13.812;2023-06-22T10:12:45;100318.00;;;28.86;50.47
21730;BME280;11027;51.030;13.812;2023-06-22T10:15:10;100323.97;;;29.04;50.01
21730;BME280;11027;51.030;13.812;2023-06-22T10:17:36;100319.94;;;29.15;49.56
21730;BME280;11027;51.030;13.812;2023-06-22T10:20:01;100319.56;;;29.22;49.54
21730;BME280;11027;51.030;13.812;2023-06-22T10:22:31;100311.09;;;29.27;49.45
21730;BME280;11027;51.030;13.812;2023-06-22T10:24:56;100312.88;;;29.37;49.23
21730;BME280;11027;51.030;13.812;2023-06-22T10:27:22;100312.81;;;29.42;49.39
21730;BME280;11027;51.030;13.812;2023-06-22T10:29:47;100309.47;;;29.40;49.16
21730;BME280;11027;51.030;13.812;2023-06-22T10:32:12;100303.03;;;29.39;49.10
21730;BME280;11027;51.030;13.812;2023-06-22T10:34:38;100302.41;;;29.42;48.55
21730;BME280;11027;51.030;13.812;2023-06-22T10:37:03;100306.00;;;29.48;48.85
21730;BME280;11027;51.030;13.812;2023-06-22T10:39:28;100293.16;;;29.61;49.25
21730;BME280;11027;51.030;13.812;2023-06-22T10:41:54;100294.06;;;29.75;49.37
21730;BME280;11027;51.030;13.812;2023-06-22T10:44:20;100291.31;;;29.89;48.97
21730;BME280;11027;51.030;13.812;2023-06-22T10:46:46;100291.06;;;30.04;48.66
21730;BME280;11027;51.030;13.812;2023-06-22T10:49:11;100285.84;;;30.11;48.18
21730;BME280;11027;51.030;13.812;2023-06-22T10:51:36;100280.75;;;30.14;47.82
21730;BME280;11027;51.030;13.812;2023-06-22T10:54:01;100278.59;;;30.10;47.30
21730;BME280;11027;51.030;13.812;2023-06-22T10:56:29;100282.69;;;29.99;47.43
21730;BME280;11027;51.030;13.812;2023-06-22T10:58:54;100286.84;;;29.88;47.52
21730;BME280;11027;51.030;13.812;2023-06-22T11:01:20;100279.72;;;29.77;47.83
21730;BME280;11027;51.030;13.812;2023-06-22T11:03:46;100280.50;;;29.63;47.28
21730;BME280;11027;51.030;13.812;2023-06-22T11:06:11;100270.41;;;29.62;47.36
21730;BME280;11027;51.030;13.812;2023-06-22T11:08:36;100277.03;;;29.71;47.89
21730;BME280;11027;51.030;13.812;2023-06-22T11:11:01;100271.44;;;29.85;47.41
21730;BME280;11027;51.030;13.812;2023-06-22T11:13:27;100272.41;;;29.95;46.76
21730;BME280;11027;51.030;13.812;2023-06-22T11:15:52;100270.41;;;29.95;46.96
21730;BME280;11027;51.030;13.812;2023-06-22T11:18:17;100276.50;;;30.02;46.79
21730;BME280;11027;51.030;13.812;2023-06-22T11:20:42;100267.75;;;30.18;46.36
21730;BME280;11027;51.030;13.812;2023-06-22T11:23:08;100261.97;;;30.42;46.46
21730;BME280;11027;51.030;13.812;2023-06-22T11:25:33;100254.50;;;30.65;46.11
21730;BME280;11027;51.030;13.812;2023-06-22T11:28:02;100259.16;;;30.83;45.36
21730;BME280;11027;51.030;13.812;2023-06-22T11:30:27;100263.25;;;31.05;45.36
21730;BME280;11027;51.030;13.812;2023-06-22T11:32:53;100255.06;;;31.17;45.17
21730;BME280;11027;51.030;13.812;2023-06-22T11:35:18;100255.44;;;31.24;45.01
21730;BME280;11027;51.030;13.812;2023-06-22T11:37:43;100242.94;;;31.30;44.89
21730;BME280;11027;51.030;13.812;2023-06-22T11:40:09;100231.88;;;31.34;44.55
21730;BME280;11027;51.030;13.812;2023-06-22T11:42:35;100240.00;;;31.36;44.57
21730;BME280;11027;51.030;13.812;2023-06-22T11:45:00;100236.22;;;31.40;44.44
21730;BME280;11027;51.030;13.812;2023-06-22T11:47:25;100236.66;;;31.47;44.13
21730;BME280;11027;51.030;13.812;2023-06-22T11:49:51;100233.09;;;31.42;43.45
21730;BME280;11027;51.030;13.812;2023-06-22T11:52:16;100227.72;;;31.32;43.71
21730;BME280;11027;51.030;13.812;2023-06-22T11:54:43;100229.44;;;31.19;43.93
21730;BME280;11027;51.030;13.812;2023-06-22T11:57:08;100223.84;;;31.05;44.36
21730;BME280;11027;51.030;13.812;2023-06-22T11:59:33;100233.25;;;30.86;44.33
21730;BME280;11027;51.030;13.812;2023-06-22T12:01:59;100216.41;;;30.73;44.60
21730;BME280;11027;51.030;13.812;2023-06-22T12:04:24;100225.34;;;30.75;44.74
21730;BME280;11027;51.030;13.812;2023-06-22T12:06:49;100214.72;;;30.71;44.36
21730;BME280;11027;51.030;13.812;2023-06-22T12:09:15;100205.97;;;30.73;44.58
21730;BME280;11027;51.030;13.812;2023-06-22T12:11:40;100201.19;;;30.74;44.31
21730;BME280;11027;51.030;13.812;2023-06-22T12:14:05;100193.47;;;30.79;44.47
21730;BME280;11027;51.030;13.812;2023-06-22T12:16:30;100187.63;;;30.89;44.21
21730;BME280;11027;51.030;13.812;2023-06-22T12:18:56;100198.56;;;30.91;44.34
21730;BME280;11027;51.030;13.812;2023-06-22T12:21:21;100195.97;;;30.95;44.76
21730;BME280;11027;51.030;13.812;2023-06-22T12:23:46;100198.41;;;31.10;44.78
21730;BME280;11027;51.030;13.812;2023-06-22T12:26:11;100186.66;;;31.30;44.91
21730;BME280;11027;51.030;13.812;2023-06-22T12:28:37;100191.28;;;31.49;44.36
21730;BME280;11027;51.030;13.812;2023-06-22T12:31:02;100181.44;;;31.60;44.20
21730;BME280;11027;51.030;13.812;2023-06-22T12:33:27;100171.41;;;31.77;44.10
21730;BME280;11027;51.030;13.812;2023-06-22T12:35:52;100182.06;;;31.80;43.59
21730;BME280;11027;51.030;13.812;2023-06-22T12:38:18;100166.66;;;31.86;43.06